createdAt,value
2022-11-19T00:03:53.391Z,5.40
2022-11-19T00:08:54.948Z,6.80
2022-11-19T00:13:56.229Z,6.83
2022-11-19T00:18:57.458Z,7.65
2022-11-19T00:23:59.011Z,7.97
2022-11-19T00:29:00.379Z,7.60
2022-11-19T00:34:01.677Z,5.78
2022-11-19T00:39:03.098Z,8.53
2022-11-19T00:44:04.394Z,7.43
2022-11-19T00:49:05.699Z,7.53
2022-11-19T00:54:06.941Z,7.78
2022-11-19T00:59:08.191Z,6.72
2022-11-19T01:04:09.473Z,5.87
2022-11-19T01:09:10.762Z,8.00
2022-11-19T01:14:12.030Z,7.03
2022-11-19T01:19:16.160Z,5.43
2022-11-19T01:24:17.467Z,7.22
2022-11-19T01:29:18.974Z,7.03
2022-11-19T01:34:20.417Z,6.50
2022-11-19T01:39:21.855Z,7.30
2022-11-19T01:44:41.910Z,7.68
2022-11-19T01:49:43.238Z,8.05
2022-11-19T01:54:47.138Z,7.43
2022-11-19T01:59:50.777Z,9.40
2022-11-19T02:04:52.839Z,11.10
2022-11-19T02:09:54.278Z,9.52
2022-11-19T02:15:00.780Z,6.40
2022-11-19T02:20:20.946Z,7.00
2022-11-19T02:25:34.680Z,8.48
2022-11-19T02:30:38.140Z,6.70
2022-11-19T02:35:39.411Z,6.28
2022-11-19T02:40:42.762Z,7.70
2022-11-19T02:45:46.666Z,8.07
2022-11-19T02:50:55.798Z,5.20
2022-11-19T02:56:12.104Z,7.13
2022-11-19T03:01:32.753Z,6.57
2022-11-19T03:06:34.642Z,5.72
2022-11-19T03:11:35.923Z,5.77
2022-11-19T03:16:42.659Z,7.72
2022-11-19T03:21:52.405Z,9.93
2022-11-19T03:26:56.182Z,7.75
2022-11-19T03:32:00.112Z,8.80
2022-11-19T03:37:02.785Z,7.60
2022-11-19T03:42:06.205Z,8.30
2022-11-19T03:47:11.252Z,9.07
2022-11-19T03:52:17.289Z,9.32
2022-11-19T03:57:19.957Z,8.05
2022-11-19T04:02:21.256Z,9.33
2022-11-19T04:07:23.281Z,7.50
2022-11-19T04:12:25.145Z,8.80
2022-11-19T04:17:26.356Z,9.57
2022-11-19T04:22:27.623Z,10.15
2022-11-19T04:27:28.919Z,7.10
2022-11-19T04:32:30.267Z,6.88
2022-11-19T04:37:31.543Z,13.17
2022-11-19T04:42:32.798Z,7.32
2022-11-19T04:47:34.081Z,9.10
2022-11-19T04:52:40.537Z,7.20
2022-11-19T04:57:42.333Z,9.05
2022-11-19T05:02:44.347Z,9.80
2022-11-19T05:07:46.205Z,8.43
2022-11-19T05:12:47.459Z,8.35
2022-11-19T05:17:48.719Z,11.30
2022-11-19T05:22:49.937Z,7.55
2022-11-19T05:27:51.398Z,7.93
2022-11-19T05:32:52.674Z,8.90
2022-11-19T05:37:53.954Z,9.70
2022-11-19T05:42:55.234Z,7.77
2022-11-19T05:47:56.806Z,8.77
2022-11-19T05:52:58.746Z,8.40
2022-11-19T05:58:00.009Z,7.30
2022-11-19T06:03:01.316Z,11.00
2022-11-19T06:08:02.606Z,7.77
2022-11-19T06:13:03.863Z,8.57
2022-11-19T06:18:05.141Z,7.33
2022-11-19T06:23:06.374Z,8.23
2022-11-19T06:28:07.626Z,8.88
2022-11-19T06:33:08.937Z,8.80
2022-11-19T06:38:10.162Z,9.43
2022-11-19T06:43:11.605Z,11.20
2022-11-19T06:53:56.386Z,12.55
2022-11-19T06:59:00.325Z,11.50
2022-11-19T07:04:01.559Z,13.43
2022-11-19T07:09:02.812Z,10.67
2022-11-19T07:14:04.117Z,11.27
2022-11-19T07:19:06.436Z,10.70
2022-11-19T07:24:08.959Z,9.13
2022-11-19T07:29:11.321Z,10.32
2022-11-19T07:34:12.605Z,11.77
2022-11-19T07:39:13.898Z,10.50
2022-11-19T07:44:15.168Z,9.35
2022-11-19T07:49:16.640Z,9.47
2022-11-19T07:54:18.111Z,8.20
2022-11-19T07:59:19.628Z,10.40
2022-11-19T08:04:21.099Z,11.73
2022-11-19T08:09:22.673Z,8.35
2022-11-19T08:14:23.903Z,9.00
2022-11-19T08:19:25.211Z,13.32
2022-11-19T08:24:26.451Z,14.20
2022-11-19T08:29:27.689Z,8.13
2022-11-19T08:34:29.828Z,9.70
2022-11-19T08:39:31.863Z,8.87
2022-11-19T08:44:34.135Z,7.20
2022-11-19T08:49:35.408Z,9.43
2022-11-19T08:54:36.688Z,8.35
2022-11-19T08:59:37.953Z,8.60
2022-11-19T09:04:39.355Z,7.77
2022-11-19T09:09:40.636Z,8.70
2022-11-19T09:14:41.952Z,8.50
2022-11-19T09:19:43.240Z,7.07
2022-11-19T09:24:44.470Z,6.60
2022-11-19T09:29:45.757Z,6.10
2022-11-19T09:34:47.026Z,7.15
2022-11-19T09:39:48.308Z,6.17
2022-11-19T09:44:55.460Z,6.63
2022-11-19T09:50:06.204Z,8.57
2022-11-19T09:55:14.144Z,6.67
2022-11-19T10:00:20.124Z,7.05
2022-11-19T10:05:30.347Z,9.03
2022-11-19T10:10:42.178Z,8.52
2022-11-19T10:15:58.807Z,12.43
2022-11-19T10:21:00.255Z,12.43
2022-11-19T10:26:06.604Z,8.57
2022-11-19T10:31:13.308Z,9.73
2022-11-19T10:36:19.709Z,8.85
2022-11-19T10:41:31.342Z,7.60
2022-11-19T10:46:32.696Z,7.23
2022-11-19T10:51:37.977Z,8.77
2022-11-19T10:56:40.200Z,8.80
2022-11-19T11:01:42.726Z,8.15
2022-11-19T11:06:49.515Z,8.48
2022-11-19T11:12:09.229Z,8.60
2022-11-19T11:17:21.796Z,9.68
2022-11-19T11:22:23.256Z,9.30
2022-11-19T11:27:33.245Z,8.82
2022-11-19T11:32:34.519Z,11.73
2022-11-19T11:37:35.885Z,14.90
2022-11-19T11:42:37.911Z,8.65
2022-11-19T11:47:39.702Z,8.13
2022-11-19T11:52:42.811Z,9.15
2022-11-19T11:57:54.574Z,13.45
2022-11-19T12:03:04.740Z,8.47
2022-11-19T12:08:07.807Z,11.02
2022-11-19T12:13:11.942Z,9.53
2022-11-19T12:18:33.500Z,8.32
2022-11-19T12:23:37.841Z,9.45
2022-11-19T12:28:48.200Z,11.27
2022-11-19T12:34:08.390Z,9.98
2022-11-19T12:39:09.629Z,10.90
2022-11-19T12:44:17.082Z,9.82
2022-11-19T12:49:33.467Z,8.05
2022-11-19T12:54:53.131Z,11.77
2022-11-19T13:00:13.023Z,9.68
2022-11-19T13:05:14.667Z,9.60
2022-11-19T13:10:22.802Z,10.20
2022-11-19T13:15:26.958Z,10.77
2022-11-19T13:20:33.496Z,9.97
2022-11-19T13:25:36.364Z,10.80
2022-11-19T13:30:40.145Z,11.57
2022-11-19T13:35:54.486Z,9.95
2022-11-19T13:41:18.705Z,14.23
2022-11-19T13:52:25.611Z,16.77
2022-11-19T13:57:26.831Z,12.60
2022-11-19T14:02:50.759Z,14.50
2022-11-19T14:08:07.425Z,13.13
2022-11-19T14:13:17.938Z,18.30
2022-11-19T14:18:42.475Z,16.02
2022-11-19T14:24:05.900Z,12.60
2022-11-19T14:29:27.458Z,13.70
2022-11-19T14:34:32.593Z,29.00
2022-11-19T14:39:39.593Z,17.93
2022-11-19T14:44:41.680Z,15.38
2022-11-19T14:49:46.424Z,14.97
2022-11-19T14:54:53.303Z,18.00
2022-11-19T15:00:02.668Z,18.42
2022-11-19T15:05:14.525Z,15.23
2022-11-19T15:10:17.642Z,16.33
2022-11-19T15:15:18.841Z,21.57
2022-11-19T15:20:25.090Z,19.65
2022-11-19T15:25:45.778Z,17.55
2022-11-19T15:30:54.203Z,16.90
2022-11-19T15:36:04.713Z,15.13
2022-11-19T15:41:06.957Z,14.97
2022-11-19T15:46:30.198Z,16.13
2022-11-19T15:51:37.913Z,15.30
2022-11-19T15:56:46.912Z,14.60
2022-11-19T16:02:08.428Z,14.65
2022-11-19T16:07:10.155Z,14.23
2022-11-19T16:12:38.100Z,16.73
2022-11-19T16:17:45.843Z,13.50
2022-11-19T16:22:52.724Z,17.70
2022-11-19T16:27:54.926Z,10.85
2022-11-19T16:32:57.609Z,11.30
2022-11-19T16:37:59.751Z,12.38
2022-11-19T16:43:01.102Z,10.57
2022-11-19T16:48:02.560Z,13.50
2022-11-19T16:53:05.342Z,10.70
2022-11-19T16:58:09.680Z,10.00
2022-11-19T17:03:23.776Z,10.50
2022-11-19T17:08:29.477Z,11.18
2022-11-19T17:13:32.230Z,11.00
2022-11-19T17:18:34.277Z,9.90
2022-11-19T17:23:46.083Z,10.73
2022-11-19T17:28:52.127Z,11.70
2022-11-19T17:33:57.402Z,10.88
2022-11-19T17:38:58.707Z,11.03
2022-11-19T17:44:18.742Z,10.80
2022-11-19T17:49:20.430Z,10.90
2022-11-19T17:54:22.224Z,14.27
2022-11-19T17:59:23.819Z,13.55
2022-11-19T18:04:25.541Z,14.73
2022-11-19T18:09:28.895Z,15.95
2022-11-19T18:14:33.672Z,13.10
2022-11-19T18:19:35.006Z,13.98
2022-11-19T18:24:36.293Z,13.45
2022-11-19T18:29:38.093Z,14.00
2022-11-19T18:34:39.395Z,12.52
2022-11-19T18:39:43.359Z,14.80
2022-11-19T18:44:44.644Z,13.02
2022-11-19T18:49:45.883Z,14.30
2022-11-19T18:54:47.108Z,14.60
2022-11-19T18:59:48.401Z,19.80
2022-11-19T19:04:51.003Z,12.83
2022-11-19T19:09:52.590Z,12.20
2022-11-19T19:14:54.582Z,12.38
2022-11-19T19:19:55.888Z,12.37
2022-11-19T19:24:58.523Z,16.30
2022-11-19T19:30:00.888Z,12.63
2022-11-19T19:35:02.209Z,14.40
2022-11-19T19:40:03.721Z,17.20
2022-11-19T19:45:05.158Z,24.03
2022-11-19T19:50:06.703Z,13.60
2022-11-19T19:55:08.213Z,17.73
2022-11-19T20:00:09.809Z,12.73
2022-11-19T20:05:11.086Z,14.57
2022-11-19T20:10:12.603Z,12.27
2022-11-19T20:15:13.827Z,15.20
2022-11-19T20:20:15.324Z,18.27
2022-11-19T20:25:16.825Z,14.45
2022-11-19T20:30:18.097Z,14.82
2022-11-19T20:35:19.383Z,15.87
2022-11-19T20:40:20.724Z,16.70
2022-11-19T20:45:22.009Z,13.27
2022-11-19T20:50:23.299Z,15.00
2022-11-19T20:55:24.643Z,13.02
2022-11-19T21:00:26.021Z,14.20
2022-11-19T21:05:27.310Z,15.18
2022-11-19T21:10:28.623Z,19.70
2022-11-19T21:15:30.348Z,16.98
2022-11-19T21:20:31.600Z,15.63
2022-11-19T21:25:34.566Z,20.13
2022-11-19T21:30:35.897Z,17.90
2022-11-19T21:35:40.439Z,16.23
2022-11-19T21:40:41.754Z,17.42
2022-11-19T21:45:43.092Z,15.48
2022-11-19T21:50:44.364Z,15.13
2022-11-19T21:55:46.006Z,13.38
2022-11-19T22:00:47.345Z,14.53
2022-11-19T22:05:57.184Z,14.60
2022-11-19T22:10:58.419Z,15.30
2022-11-19T22:16:00.742Z,14.17
2022-11-19T22:21:02.721Z,14.68
2022-11-19T22:26:05.242Z,21.50
2022-11-19T22:31:06.586Z,21.17
2022-11-19T22:36:10.318Z,18.40
2022-11-19T22:41:25.426Z,16.08
2022-11-19T22:46:36.843Z,14.95
2022-11-19T22:51:47.199Z,16.20
2022-11-19T22:56:58.026Z,16.65
2022-11-19T23:01:59.691Z,17.75
2022-11-19T23:07:12.056Z,16.67
2022-11-19T23:12:34.784Z,16.92
2022-11-19T23:17:41.791Z,15.90
2022-11-19T23:22:43.007Z,17.15
2022-11-19T23:27:44.216Z,17.98
2022-11-19T23:32:45.467Z,16.80
2022-11-19T23:37:46.711Z,16.75
2022-11-19T23:42:51.887Z,16.53
2022-11-19T23:47:53.469Z,16.55
2022-11-19T23:52:54.686Z,15.77
2022-11-19T23:57:55.983Z,17.50
